Toronto/City Centre Airport

CYTZ · 安大略, 加拿大

罗盘
风向 的 风向 200° Toronto/City Centre Airport 6/24
风向 到 风: 8 kt, 阵阵 16 kt, 3 beaufort

7 kt

4 kt
改变
0 ft 1.000 2.000 3.000 4.000 5.000
没有云
METAR CYTZ 131900Z AUTO 20008G16KT 9SM CLR 22/16 A2978 RMK SLP086 DENSITY ALT 1300FT

METAR Toronto/City Centre Airport - CYTZ/YTZ

Toronto/City Centre Airport是,加拿大中的中型机场。 该机场位于纬度43,62863和经度-79,39511。 该机场有2条跑道: 6/24 和 8/26. 本场的ICAO机场代码为CYTZ。 该机场的本地机场标识(FAA LID)为CYTZ。 该机场的IATA代码为YTZ。 机场在Toronto FIR中。

该航空气象观测是针对Toronto/City Centre Airport在2024年6月13日 15:00, 当地时间进行的。

机场观察

风向为200°,速度为8 kt。 已测得16 kt的阵风。

可见度为9 mi。

有没有云。 没有观察到天花板。

温度和风寒是22 °C。 露点为16 °C,相对湿度为69%。 海平面上的气压为29,78 inHg (QNH)。

白天

今天,太阳从05:35升起,在21:00降落。 这适用于Toronto/City Centre Airport,世界夏令时可能有所不同。 当地时间与世界标准时间之间的时差为-4 小时。 夏令时目前正在进行中。

公司介绍

在这个机场,你可以找到飞行学校。 本场上唯一已知的公司是Island Air Flight School。

体会

到Vliegles.nl去找飞行课程,跳伞和其他飞行体验。 浏览页面,了解Toronto/City Centre Airport附近所有可用的活动。 你也可以使用搜索功能来寻找你所在地附近的特定飞行课程、跳伞或其他飞行体验。

跑道

Id 标题 侧风 逆风 侧风 %
6/24 050°-230° 4-8 kt 7-14 kt 50 %
8/26 071°-251° 6-12 kt 5-10 kt 78 %

逆风成分最大的方向会被突出显示,并用于横风计算。 这并不一定意味着这个方向在使用。

乌云

- CLR 没有云

温度 & 天气

温度 22 °C
露点 16 °C
相对湿度 69%
Kp-index 1 (0-9)

评论

SLP086海平面压力为29,78 inHg (29,78 inHg)
DENSITY ALT 1300FT

白天

日出
05:35
中午
13:17
日落
21:00 (5:25)

小工具

你想在你的网站上有一个关于Toronto/City Centre Airport的当前航空天气(METAR)的小部件吗?

显示HTML代码
报告变更